sensor_id;sensor_type;location;lat;lon;timestamp;P1;durP1;ratioP1;P2;durP2;ratioP2
9156;SDS011;4613;48.392;9.998;2023-08-17T00:00:38;3.97;;;2.83;;
9156;SDS011;4613;48.392;9.998;2023-08-17T00:03:27;2.53;;;2.33;;
9156;SDS011;4613;48.392;9.998;2023-08-17T00:06:16;2.83;;;2.23;;
9156;SDS011;4613;48.392;9.998;2023-08-17T00:09:06;2.37;;;2.17;;
9156;SDS011;4613;48.392;9.998;2023-08-17T00:11:55;2.50;;;2.30;;
9156;SDS011;4613;48.392;9.998;2023-08-17T00:14:44;2.20;;;2.00;;
9156;SDS011;4613;48.392;9.998;2023-08-17T00:17:33;1.90;;;1.80;;
9156;SDS011;4613;48.392;9.998;2023-08-17T00:20:22;2.30;;;2.03;;
9156;SDS011;4613;48.392;9.998;2023-08-17T00:23:11;2.60;;;2.07;;
9156;SDS011;4613;48.392;9.998;2023-08-17T00:26:00;1.90;;;1.70;;
9156;SDS011;4613;48.392;9.998;2023-08-17T00:28:49;2.50;;;2.30;;
9156;SDS011;4613;48.392;9.998;2023-08-17T00:31:38;2.07;;;1.97;;
9156;SDS011;4613;48.392;9.998;2023-08-17T00:34:27;2.07;;;1.90;;
9156;SDS011;4613;48.392;9.998;2023-08-17T00:37:16;2.00;;;1.90;;
9156;SDS011;4613;48.392;9.998;2023-08-17T00:40:06;2.40;;;2.10;;
9156;SDS011;4613;48.392;9.998;2023-08-17T00:42:55;2.40;;;2.10;;
9156;SDS011;4613;48.392;9.998;2023-08-17T00:45:45;2.27;;;2.07;;
9156;SDS011;4613;48.392;9.998;2023-08-17T00:48:35;3.13;;;2.23;;
9156;SDS011;4613;48.392;9.998;2023-08-17T00:51:25;2.60;;;2.13;;
9156;SDS011;4613;48.392;9.998;2023-08-17T00:54:15;2.47;;;2.27;;
9156;SDS011;4613;48.392;9.998;2023-08-17T00:57:12;2.20;;;2.00;;
9156;SDS011;4613;48.392;9.998;2023-08-17T01:00:01;3.23;;;2.07;;
9156;SDS011;4613;48.392;9.998;2023-08-17T01:02:53;2.67;;;2.47;;
9156;SDS011;4613;48.392;9.998;2023-08-17T01:05:43;2.30;;;2.10;;
9156;SDS011;4613;48.392;9.998;2023-08-17T01:08:32;3.27;;;2.30;;
9156;SDS011;4613;48.392;9.998;2023-08-17T01:17:43;2.60;;;2.40;;
9156;SDS011;4613;48.392;9.998;2023-08-17T01:20:40;2.30;;;2.10;;
9156;SDS011;4613;48.392;9.998;2023-08-17T01:23:30;2.40;;;2.20;;
9156;SDS011;4613;48.392;9.998;2023-08-17T01:26:20;2.50;;;2.30;;
9156;SDS011;4613;48.392;9.998;2023-08-17T01:29:09;3.17;;;2.40;;
9156;SDS011;4613;48.392;9.998;2023-08-17T01:34:57;2.60;;;2.40;;
9156;SDS011;4613;48.392;9.998;2023-08-17T01:37:50;2.43;;;2.23;;
9156;SDS011;4613;48.392;9.998;2023-08-17T01:40:41;2.40;;;2.20;;
9156;SDS011;4613;48.392;9.998;2023-08-17T01:43:34;3.00;;;2.17;;
9156;SDS011;4613;48.392;9.998;2023-08-17T01:46:27;2.60;;;2.40;;
9156;SDS011;4613;48.392;9.998;2023-08-17T01:49:21;2.90;;;2.33;;
9156;SDS011;4613;48.392;9.998;2023-08-17T01:52:11;2.47;;;2.27;;
9156;SDS011;4613;48.392;9.998;2023-08-17T01:55:00;2.03;;;1.93;;
9156;SDS011;4613;48.392;9.998;2023-08-17T01:57:50;2.13;;;2.00;;
9156;SDS011;4613;48.392;9.998;2023-08-17T02:00:40;2.07;;;1.97;;
9156;SDS011;4613;48.392;9.998;2023-08-17T02:03:29;2.63;;;2.03;;
9156;SDS011;4613;48.392;9.998;2023-08-17T02:06:18;2.27;;;2.07;;
9156;SDS011;4613;48.392;9.998;2023-08-17T02:09:08;2.70;;;1.90;;
9156;SDS011;4613;48.392;9.998;2023-08-17T02:11:59;2.77;;;2.00;;
9156;SDS011;4613;48.392;9.998;2023-08-17T02:14:48;2.80;;;2.13;;
9156;SDS011;4613;48.392;9.998;2023-08-17T02:17:38;2.50;;;2.20;;
9156;SDS011;4613;48.392;9.998;2023-08-17T02:20:27;2.30;;;2.10;;
9156;SDS011;4613;48.392;9.998;2023-08-17T02:23:19;2.83;;;2.27;;
9156;SDS011;4613;48.392;9.998;2023-08-17T02:26:09;2.33;;;2.13;;
9156;SDS011;4613;48.392;9.998;2023-08-17T02:28:59;2.40;;;2.20;;
9156;SDS011;4613;48.392;9.998;2023-08-17T02:31:48;1.80;;;1.70;;
9156;SDS011;4613;48.392;9.998;2023-08-17T02:34:38;2.30;;;2.10;;
9156;SDS011;4613;48.392;9.998;2023-08-17T02:37:28;2.13;;;1.90;;
9156;SDS011;4613;48.392;9.998;2023-08-17T02:40:29;2.23;;;2.03;;
9156;SDS011;4613;48.392;9.998;2023-08-17T02:43:20;2.23;;;2.03;;
9156;SDS011;4613;48.392;9.998;2023-08-17T02:46:24;2.10;;;1.90;;
9156;SDS011;4613;48.392;9.998;2023-08-17T02:49:13;2.30;;;2.10;;
9156;SDS011;4613;48.392;9.998;2023-08-17T02:52:02;2.00;;;1.83;;
9156;SDS011;4613;48.392;9.998;2023-08-17T02:54:52;1.80;;;1.70;;
9156;SDS011;4613;48.392;9.998;2023-08-17T02:57:42;1.80;;;1.70;;
9156;SDS011;4613;48.392;9.998;2023-08-17T03:00:31;2.40;;;2.20;;
9156;SDS011;4613;48.392;9.998;2023-08-17T03:03:21;3.87;;;3.00;;
9156;SDS011;4613;48.392;9.998;2023-08-17T03:06:10;3.13;;;2.83;;
9156;SDS011;4613;48.392;9.998;2023-08-17T03:09:02;2.20;;;2.00;;
9156;SDS011;4613;48.392;9.998;2023-08-17T03:11:52;1.90;;;1.80;;
9156;SDS011;4613;48.392;9.998;2023-08-17T03:14:41;2.90;;;2.40;;
9156;SDS011;4613;48.392;9.998;2023-08-17T03:17:30;3.07;;;1.97;;
9156;SDS011;4613;48.392;9.998;2023-08-17T03:20:19;2.57;;;2.37;;
9156;SDS011;4613;48.392;9.998;2023-08-17T03:23:09;2.50;;;2.30;;
9156;SDS011;4613;48.392;9.998;2023-08-17T03:25:58;3.10;;;2.40;;
9156;SDS011;4613;48.392;9.998;2023-08-17T03:28:49;2.30;;;2.10;;
9156;SDS011;4613;48.392;9.998;2023-08-17T03:31:39;2.53;;;2.33;;
9156;SDS011;4613;48.392;9.998;2023-08-17T03:34:30;2.53;;;2.30;;
9156;SDS011;4613;48.392;9.998;2023-08-17T03:37:20;2.30;;;2.10;;
9156;SDS011;4613;48.392;9.998;2023-08-17T03:40:10;2.90;;;2.70;;
9156;SDS011;4613;48.392;9.998;2023-08-17T03:42:59;4.40;;;2.80;;
9156;SDS011;4613;48.392;9.998;2023-08-17T03:45:49;2.70;;;2.50;;
9156;SDS011;4613;48.392;9.998;2023-08-17T03:48:38;4.00;;;2.37;;
9156;SDS011;4613;48.392;9.998;2023-08-17T03:51:28;2.80;;;2.60;;
9156;SDS011;4613;48.392;9.998;2023-08-17T03:54:18;2.97;;;2.60;;
9156;SDS011;4613;48.392;9.998;2023-08-17T03:57:09;3.03;;;2.40;;
9156;SDS011;4613;48.392;9.998;2023-08-17T03:59:58;2.50;;;2.30;;
9156;SDS011;4613;48.392;9.998;2023-08-17T04:02:48;4.10;;;2.50;;
9156;SDS011;4613;48.392;9.998;2023-08-17T04:05:41;2.47;;;2.27;;
9156;SDS011;4613;48.392;9.998;2023-08-17T04:08:31;2.47;;;2.27;;
9156;SDS011;4613;48.392;9.998;2023-08-17T04:11:21;2.93;;;2.40;;
9156;SDS011;4613;48.392;9.998;2023-08-17T04:14:11;2.87;;;2.33;;
9156;SDS011;4613;48.392;9.998;2023-08-17T04:17:01;2.57;;;2.37;;
9156;SDS011;4613;48.392;9.998;2023-08-17T04:19:50;3.27;;;2.20;;
9156;SDS011;4613;48.392;9.998;2023-08-17T04:22:39;3.43;;;2.57;;
9156;SDS011;4613;48.392;9.998;2023-08-17T04:25:28;2.80;;;2.20;;
9156;SDS011;4613;48.392;9.998;2023-08-17T04:28:18;2.90;;;2.30;;
9156;SDS011;4613;48.392;9.998;2023-08-17T04:31:08;2.30;;;2.10;;
9156;SDS011;4613;48.392;9.998;2023-08-17T04:34:01;2.50;;;2.30;;
9156;SDS011;4613;48.392;9.998;2023-08-17T04:36:51;2.47;;;2.27;;
9156;SDS011;4613;48.392;9.998;2023-08-17T04:39:41;2.30;;;2.10;;
9156;SDS011;4613;48.392;9.998;2023-08-17T04:42:33;3.43;;;2.40;;
9156;SDS011;4613;48.392;9.998;2023-08-17T04:45:22;3.70;;;2.70;;
9156;SDS011;4613;48.392;9.998;2023-08-17T04:48:12;2.70;;;2.17;;
9156;SDS011;4613;48.392;9.998;2023-08-17T04:51:01;2.23;;;2.03;;
9156;SDS011;4613;48.392;9.998;2023-08-17T04:53:51;2.27;;;2.07;;
9156;SDS011;4613;48.392;9.998;2023-08-17T04:56:42;2.10;;;2.00;;
9156;SDS011;4613;48.392;9.998;2023-08-17T04:59:32;3.17;;;2.17;;
9156;SDS011;4613;48.392;9.998;2023-08-17T05:02:21;3.90;;;2.30;;
9156;SDS011;4613;48.392;9.998;2023-08-17T05:05:12;3.10;;;2.00;;
9156;SDS011;4613;48.392;9.998;2023-08-17T05:08:03;7.43;;;2.47;;
9156;SDS011;4613;48.392;9.998;2023-08-17T05:10:52;3.17;;;2.40;;
9156;SDS011;4613;48.392;9.998;2023-08-17T05:13:41;7.97;;;2.70;;
9156;SDS011;4613;48.392;9.998;2023-08-17T05:16:31;4.30;;;2.20;;
9156;SDS011;4613;48.392;9.998;2023-08-17T05:19:20;4.03;;;2.27;;
9156;SDS011;4613;48.392;9.998;2023-08-17T05:22:10;2.40;;;2.20;;
9156;SDS011;4613;48.392;9.998;2023-08-17T05:25:01;4.37;;;2.27;;
9156;SDS011;4613;48.392;9.998;2023-08-17T05:27:52;3.63;;;2.20;;
9156;SDS011;4613;48.392;9.998;2023-08-17T05:30:43;2.30;;;2.10;;
9156;SDS011;4613;48.392;9.998;2023-08-17T05:33:32;2.13;;;1.97;;
9156;SDS011;4613;48.392;9.998;2023-08-17T05:36:22;2.33;;;1.87;;
9156;SDS011;4613;48.392;9.998;2023-08-17T05:39:11;2.30;;;2.10;;
9156;SDS011;4613;48.392;9.998;2023-08-17T05:42:02;3.57;;;2.30;;
9156;SDS011;4613;48.392;9.998;2023-08-17T05:44:51;2.10;;;2.00;;
9156;SDS011;4613;48.392;9.998;2023-08-17T05:47:41;3.00;;;2.27;;
9156;SDS011;4613;48.392;9.998;2023-08-17T05:50:30;2.07;;;1.97;;
9156;SDS011;4613;48.392;9.998;2023-08-17T05:53:19;2.07;;;1.90;;
9156;SDS011;4613;48.392;9.998;2023-08-17T05:56:08;2.43;;;1.90;;
9156;SDS011;4613;48.392;9.998;2023-08-17T05:58:57;2.20;;;2.00;;
9156;SDS011;4613;48.392;9.998;2023-08-17T06:01:47;2.13;;;1.93;;
9156;SDS011;4613;48.392;9.998;2023-08-17T06:04:36;1.83;;;1.73;;
9156;SDS011;4613;48.392;9.998;2023-08-17T06:07:25;2.00;;;1.90;;
9156;SDS011;4613;48.392;9.998;2023-08-17T06:10:14;3.93;;;2.00;;
9156;SDS011;4613;48.392;9.998;2023-08-17T06:13:03;3.20;;;1.97;;
9156;SDS011;4613;48.392;9.998;2023-08-17T06:15:52;2.10;;;1.90;;
9156;SDS011;4613;48.392;9.998;2023-08-17T06:18:41;5.20;;;2.00;;
9156;SDS011;4613;48.392;9.998;2023-08-17T06:21:31;3.00;;;1.77;;
9156;SDS011;4613;48.392;9.998;2023-08-17T06:24:20;3.23;;;2.10;;
9156;SDS011;4613;48.392;9.998;2023-08-17T06:27:09;2.73;;;2.20;;
9156;SDS011;4613;48.392;9.998;2023-08-17T06:29:58;2.50;;;2.30;;
9156;SDS011;4613;48.392;9.998;2023-08-17T06:32:47;2.53;;;2.33;;
9156;SDS011;4613;48.392;9.998;2023-08-17T06:35:38;2.43;;;2.23;;
9156;SDS011;4613;48.392;9.998;2023-08-17T06:38:30;3.10;;;2.30;;
9156;SDS011;4613;48.392;9.998;2023-08-17T06:41:19;3.03;;;2.40;;
9156;SDS011;4613;48.392;9.998;2023-08-17T06:44:08;2.93;;;2.63;;
9156;SDS011;4613;48.392;9.998;2023-08-17T06:46:57;4.33;;;2.50;;
9156;SDS011;4613;48.392;9.998;2023-08-17T06:49:47;2.60;;;2.40;;
9156;SDS011;4613;48.392;9.998;2023-08-17T06:52:36;5.07;;;2.77;;
9156;SDS011;4613;48.392;9.998;2023-08-17T06:55:27;2.50;;;2.30;;
9156;SDS011;4613;48.392;9.998;2023-08-17T06:58:17;2.37;;;2.17;;
9156;SDS011;4613;48.392;9.998;2023-08-17T07:01:06;2.63;;;2.30;;
9156;SDS011;4613;48.392;9.998;2023-08-17T07:03:55;2.50;;;2.30;;
9156;SDS011;4613;48.392;9.998;2023-08-17T07:06:45;3.10;;;2.10;;
9156;SDS011;4613;48.392;9.998;2023-08-17T07:09:34;3.07;;;2.73;;
9156;SDS011;4613;48.392;9.998;2023-08-17T07:12:24;4.87;;;2.70;;
9156;SDS011;4613;48.392;9.998;2023-08-17T07:15:13;3.43;;;3.13;;
9156;SDS011;4613;48.392;9.998;2023-08-17T07:18:04;4.57;;;3.37;;
9156;SDS011;4613;48.392;9.998;2023-08-17T07:20:56;2.93;;;2.63;;
9156;SDS011;4613;48.392;9.998;2023-08-17T07:23:45;2.67;;;2.47;;
9156;SDS011;4613;48.392;9.998;2023-08-17T07:26:35;2.87;;;2.57;;
9156;SDS011;4613;48.392;9.998;2023-08-17T07:29:24;2.27;;;2.10;;
9156;SDS011;4613;48.392;9.998;2023-08-17T07:32:14;2.40;;;2.20;;
9156;SDS011;4613;48.392;9.998;2023-08-17T07:35:03;2.20;;;2.10;;
9156;SDS011;4613;48.392;9.998;2023-08-17T07:37:52;2.30;;;2.10;;
9156;SDS011;4613;48.392;9.998;2023-08-17T07:40:41;2.83;;;2.20;;
9156;SDS011;4613;48.392;9.998;2023-08-17T07:43:32;2.30;;;2.10;;
9156;SDS011;4613;48.392;9.998;2023-08-17T07:46:21;2.23;;;2.13;;
9156;SDS011;4613;48.392;9.998;2023-08-17T07:49:11;2.20;;;2.00;;
9156;SDS011;4613;48.392;9.998;2023-08-17T07:52:00;3.13;;;2.37;;
9156;SDS011;4613;48.392;9.998;2023-08-17T07:54:49;2.63;;;2.20;;
9156;SDS011;4613;48.392;9.998;2023-08-17T07:57:38;3.10;;;2.50;;
9156;SDS011;4613;48.392;9.998;2023-08-17T08:00:26;2.90;;;1.97;;
9156;SDS011;4613;48.392;9.998;2023-08-17T08:03:16;2.97;;;2.40;;
9156;SDS011;4613;48.392;9.998;2023-08-17T08:06:05;2.33;;;2.13;;
9156;SDS011;4613;48.392;9.998;2023-08-17T08:08:54;2.27;;;2.07;;
9156;SDS011;4613;48.392;9.998;2023-08-17T08:11:43;2.60;;;2.40;;
9156;SDS011;4613;48.392;9.998;2023-08-17T08:14:36;3.13;;;2.37;;
9156;SDS011;4613;48.392;9.998;2023-08-17T08:17:25;2.53;;;2.33;;
9156;SDS011;4613;48.392;9.998;2023-08-17T08:20:14;3.47;;;2.77;;
9156;SDS011;4613;48.392;9.998;2023-08-17T08:23:03;6.77;;;2.43;;
9156;SDS011;4613;48.392;9.998;2023-08-17T08:25:53;2.90;;;2.60;;
9156;SDS011;4613;48.392;9.998;2023-08-17T08:28:43;2.70;;;2.50;;
9156;SDS011;4613;48.392;9.998;2023-08-17T08:31:32;5.13;;;2.47;;
9156;SDS011;4613;48.392;9.998;2023-08-17T08:34:21;2.50;;;2.30;;
9156;SDS011;4613;48.392;9.998;2023-08-17T08:37:10;3.27;;;2.80;;
9156;SDS011;4613;48.392;9.998;2023-08-17T08:40:00;3.40;;;2.47;;
9156;SDS011;4613;48.392;9.998;2023-08-17T08:42:49;2.47;;;2.27;;
9156;SDS011;4613;48.392;9.998;2023-08-17T08:45:38;2.53;;;2.10;;
9156;SDS011;4613;48.392;9.998;2023-08-17T08:48:31;2.50;;;2.23;;
9156;SDS011;4613;48.392;9.998;2023-08-17T08:51:27;2.90;;;2.30;;
9156;SDS011;4613;48.392;9.998;2023-08-17T08:54:22;3.13;;;2.73;;
9156;SDS011;4613;48.392;9.998;2023-08-17T08:57:14;3.60;;;2.80;;
9156;SDS011;4613;48.392;9.998;2023-08-17T09:00:06;3.47;;;3.17;;
9156;SDS011;4613;48.392;9.998;2023-08-17T09:02:56;4.23;;;3.53;;
9156;SDS011;4613;48.392;9.998;2023-08-17T09:05:49;3.73;;;3.03;;
9156;SDS011;4613;48.392;9.998;2023-08-17T09:08:39;2.90;;;2.70;;
9156;SDS011;4613;48.392;9.998;2023-08-17T09:11:29;3.00;;;2.80;;
9156;SDS011;4613;48.392;9.998;2023-08-17T09:14:18;4.10;;;2.73;;
9156;SDS011;4613;48.392;9.998;2023-08-17T09:17:08;2.67;;;2.47;;
9156;SDS011;4613;48.392;9.998;2023-08-17T09:19:58;2.93;;;2.73;;
9156;SDS011;4613;48.392;9.998;2023-08-17T09:22:46;3.33;;;2.83;;
9156;SDS011;4613;48.392;9.998;2023-08-17T09:25:38;2.60;;;2.40;;
9156;SDS011;4613;48.392;9.998;2023-08-17T09:28:28;2.63;;;2.40;;
9156;SDS011;4613;48.392;9.998;2023-08-17T09:31:21;2.80;;;2.50;;
9156;SDS011;4613;48.392;9.998;2023-08-17T09:34:10;2.50;;;2.30;;
9156;SDS011;4613;48.392;9.998;2023-08-17T09:37:03;4.97;;;2.63;;
9156;SDS011;4613;48.392;9.998;2023-08-17T09:39:53;2.30;;;2.20;;
9156;SDS011;4613;48.392;9.998;2023-08-17T09:42:43;4.73;;;2.13;;
9156;SDS011;4613;48.392;9.998;2023-08-17T09:45:33;2.93;;;2.73;;
9156;SDS011;4613;48.392;9.998;2023-08-17T09:48:24;2.23;;;2.13;;
9156;SDS011;4613;48.392;9.998;2023-08-17T09:51:14;2.77;;;2.00;;
9156;SDS011;4613;48.392;9.998;2023-08-17T09:54:04;2.93;;;2.30;;
9156;SDS011;4613;48.392;9.998;2023-08-17T09:56:53;2.10;;;1.90;;
9156;SDS011;4613;48.392;9.998;2023-08-17T09:59:43;7.50;;;2.90;;
9156;SDS011;4613;48.392;9.998;2023-08-17T10:02:32;2.47;;;2.27;;
9156;SDS011;4613;48.392;9.998;2023-08-17T10:05:23;3.93;;;2.20;;
9156;SDS011;4613;48.392;9.998;2023-08-17T10:08:14;10.63;;;2.63;;
9156;SDS011;4613;48.392;9.998;2023-08-17T10:11:08;2.67;;;2.43;;
9156;SDS011;4613;48.392;9.998;2023-08-17T10:14:02;2.07;;;1.90;;
9156;SDS011;4613;48.392;9.998;2023-08-17T10:17:04;2.20;;;2.00;;
9156;SDS011;4613;48.392;9.998;2023-08-17T10:20:01;2.20;;;2.00;;
9156;SDS011;4613;48.392;9.998;2023-08-17T10:22:52;2.40;;;2.20;;
9156;SDS011;4613;48.392;9.998;2023-08-17T10:25:56;2.03;;;1.93;;
9156;SDS011;4613;48.392;9.998;2023-08-17T10:28:45;2.90;;;2.57;;
9156;SDS011;4613;48.392;9.998;2023-08-17T10:31:35;2.30;;;2.10;;
9156;SDS011;4613;48.392;9.998;2023-08-17T10:34:24;2.00;;;1.90;;
9156;SDS011;4613;48.392;9.998;2023-08-17T10:37:14;5.33;;;2.37;;
9156;SDS011;4613;48.392;9.998;2023-08-17T10:40:04;3.13;;;2.57;;
9156;SDS011;4613;48.392;9.998;2023-08-17T10:42:54;2.20;;;2.00;;
9156;SDS011;4613;48.392;9.998;2023-08-17T10:45:44;2.57;;;2.37;;
9156;SDS011;4613;48.392;9.998;2023-08-17T10:48:36;2.10;;;1.90;;
9156;SDS011;4613;48.392;9.998;2023-08-17T10:51:25;2.50;;;2.30;;
9156;SDS011;4613;48.392;9.998;2023-08-17T10:54:14;3.00;;;1.97;;
9156;SDS011;4613;48.392;9.998;2023-08-17T11:00:35;5.03;;;2.83;;
9156;SDS011;4613;48.392;9.998;2023-08-17T11:03:25;2.70;;;2.20;;
9156;SDS011;4613;48.392;9.998;2023-08-17T11:06:17;3.47;;;2.20;;
9156;SDS011;4613;48.392;9.998;2023-08-17T11:09:07;2.03;;;1.93;;
9156;SDS011;4613;48.392;9.998;2023-08-17T11:11:57;2.33;;;2.00;;
9156;SDS011;4613;48.392;9.998;2023-08-17T11:14:49;2.13;;;2.00;;
9156;SDS011;4613;48.392;9.998;2023-08-17T11:17:38;2.47;;;2.27;;
9156;SDS011;4613;48.392;9.998;2023-08-17T11:20:28;2.60;;;2.40;;
9156;SDS011;4613;48.392;9.998;2023-08-17T11:23:17;2.47;;;2.13;;
9156;SDS011;4613;48.392;9.998;2023-08-17T11:26:07;2.57;;;2.37;;
9156;SDS011;4613;48.392;9.998;2023-08-17T11:28:56;7.33;;;2.10;;
9156;SDS011;4613;48.392;9.998;2023-08-17T11:31:46;2.43;;;2.23;;
9156;SDS011;4613;48.392;9.998;2023-08-17T11:34:40;2.77;;;2.57;;
9156;SDS011;4613;48.392;9.998;2023-08-17T11:37:29;2.30;;;2.10;;
9156;SDS011;4613;48.392;9.998;2023-08-17T11:40:18;2.40;;;2.20;;
9156;SDS011;4613;48.392;9.998;2023-08-17T11:43:07;8.37;;;2.67;;
9156;SDS011;4613;48.392;9.998;2023-08-17T11:45:57;2.30;;;2.10;;
9156;SDS011;4613;48.392;9.998;2023-08-17T11:48:46;2.40;;;2.20;;
9156;SDS011;4613;48.392;9.998;2023-08-17T11:51:37;4.47;;;2.50;;
9156;SDS011;4613;48.392;9.998;2023-08-17T11:54:32;3.93;;;1.90;;
9156;SDS011;4613;48.392;9.998;2023-08-17T11:57:22;2.40;;;1.90;;
9156;SDS011;4613;48.392;9.998;2023-08-17T12:00:21;2.87;;;2.00;;
9156;SDS011;4613;48.392;9.998;2023-08-17T12:03:14;2.20;;;2.10;;
9156;SDS011;4613;48.392;9.998;2023-08-17T12:06:04;1.90;;;1.80;;
9156;SDS011;4613;48.392;9.998;2023-08-17T12:08:54;2.20;;;2.00;;
9156;SDS011;4613;48.392;9.998;2023-08-17T12:11:45;6.93;;;2.73;;
9156;SDS011;4613;48.392;9.998;2023-08-17T12:14:35;2.30;;;2.10;;
9156;SDS011;4613;48.392;9.998;2023-08-17T12:17:25;2.00;;;1.90;;
9156;SDS011;4613;48.392;9.998;2023-08-17T12:20:15;2.70;;;2.10;;
9156;SDS011;4613;48.392;9.998;2023-08-17T12:23:09;3.30;;;2.43;;
9156;SDS011;4613;48.392;9.998;2023-08-17T12:25:58;1.90;;;1.80;;
9156;SDS011;4613;48.392;9.998;2023-08-17T12:28:50;2.37;;;2.17;;
9156;SDS011;4613;48.392;9.998;2023-08-17T12:31:39;3.83;;;2.60;;
9156;SDS011;4613;48.392;9.998;2023-08-17T12:34:29;2.60;;;2.40;;
9156;SDS011;4613;48.392;9.998;2023-08-17T12:37:19;2.37;;;2.17;;
9156;SDS011;4613;48.392;9.998;2023-08-17T12:40:09;2.50;;;2.30;;
9156;SDS011;4613;48.392;9.998;2023-08-17T12:42:58;3.03;;;2.80;;
9156;SDS011;4613;48.392;9.998;2023-08-17T12:45:48;2.93;;;2.20;;
9156;SDS011;4613;48.392;9.998;2023-08-17T12:48:37;2.57;;;2.03;;
9156;SDS011;4613;48.392;9.998;2023-08-17T12:51:27;2.50;;;2.30;;
9156;SDS011;4613;48.392;9.998;2023-08-17T12:54:16;3.30;;;2.50;;
9156;SDS011;4613;48.392;9.998;2023-08-17T12:57:05;2.50;;;2.30;;
9156;SDS011;4613;48.392;9.998;2023-08-17T12:59:54;3.17;;;2.30;;
9156;SDS011;4613;48.392;9.998;2023-08-17T13:02:45;2.60;;;2.40;;
9156;SDS011;4613;48.392;9.998;2023-08-17T13:05:37;2.53;;;2.30;;
9156;SDS011;4613;48.392;9.998;2023-08-17T13:08:28;2.60;;;2.40;;
9156;SDS011;4613;48.392;9.998;2023-08-17T13:11:18;3.20;;;2.60;;
9156;SDS011;4613;48.392;9.998;2023-08-17T13:14:07;2.50;;;2.30;;
9156;SDS011;4613;48.392;9.998;2023-08-17T13:16:56;2.40;;;2.23;;
9156;SDS011;4613;48.392;9.998;2023-08-17T13:19:46;2.83;;;2.63;;
9156;SDS011;4613;48.392;9.998;2023-08-17T13:22:35;3.33;;;3.03;;
9156;SDS011;4613;48.392;9.998;2023-08-17T13:25:24;2.10;;;1.90;;
9156;SDS011;4613;48.392;9.998;2023-08-17T13:28:14;2.10;;;1.60;;
9156;SDS011;4613;48.392;9.998;2023-08-17T13:31:03;2.40;;;1.37;;
9156;SDS011;4613;48.392;9.998;2023-08-17T13:33:53;1.40;;;1.30;;
9156;SDS011;4613;48.392;9.998;2023-08-17T13:36:42;1.50;;;1.40;;
9156;SDS011;4613;48.392;9.998;2023-08-17T13:39:31;2.10;;;1.20;;
9156;SDS011;4613;48.392;9.998;2023-08-17T13:42:20;1.70;;;1.60;;
9156;SDS011;4613;48.392;9.998;2023-08-17T13:45:09;1.43;;;1.33;;
9156;SDS011;4613;48.392;9.998;2023-08-17T13:47:58;1.60;;;1.50;;
9156;SDS011;4613;48.392;9.998;2023-08-17T13:50:48;1.40;;;1.30;;
9156;SDS011;4613;48.392;9.998;2023-08-17T13:53:37;1.20;;;1.10;;
9156;SDS011;4613;48.392;9.998;2023-08-17T13:56:27;1.30;;;1.20;;
9156;SDS011;4613;48.392;9.998;2023-08-17T13:59:17;2.33;;;1.60;;
9156;SDS011;4613;48.392;9.998;2023-08-17T14:02:07;1.60;;;1.50;;
9156;SDS011;4613;48.392;9.998;2023-08-17T14:04:57;1.73;;;1.40;;
9156;SDS011;4613;48.392;9.998;2023-08-17T14:07:47;1.77;;;1.43;;
9156;SDS011;4613;48.392;9.998;2023-08-17T14:10:37;1.50;;;1.40;;
9156;SDS011;4613;48.392;9.998;2023-08-17T14:13:26;1.57;;;1.30;;
9156;SDS011;4613;48.392;9.998;2023-08-17T14:16:15;1.30;;;1.20;;
9156;SDS011;4613;48.392;9.998;2023-08-17T14:19:03;1.93;;;1.70;;
9156;SDS011;4613;48.392;9.998;2023-08-17T14:21:52;1.90;;;1.53;;
9156;SDS011;4613;48.392;9.998;2023-08-17T14:24:42;1.60;;;1.50;;
9156;SDS011;4613;48.392;9.998;2023-08-17T14:27:31;1.50;;;1.40;;
9156;SDS011;4613;48.392;9.998;2023-08-17T14:30:21;2.20;;;1.40;;
9156;SDS011;4613;48.392;9.998;2023-08-17T14:33:12;2.10;;;1.93;;
9156;SDS011;4613;48.392;9.998;2023-08-17T14:36:03;2.30;;;2.07;;
9156;SDS011;4613;48.392;9.998;2023-08-17T14:38:52;2.20;;;1.90;;
9156;SDS011;4613;48.392;9.998;2023-08-17T14:41:41;2.23;;;2.00;;
9156;SDS011;4613;48.392;9.998;2023-08-17T14:44:32;3.27;;;2.30;;
9156;SDS011;4613;48.392;9.998;2023-08-17T14:47:21;2.53;;;1.73;;
9156;SDS011;4613;48.392;9.998;2023-08-17T14:50:10;2.77;;;1.70;;
9156;SDS011;4613;48.392;9.998;2023-08-17T14:53:02;1.60;;;1.50;;
9156;SDS011;4613;48.392;9.998;2023-08-17T14:55:56;1.73;;;1.63;;
9156;SDS011;4613;48.392;9.998;2023-08-17T14:58:46;2.60;;;1.63;;
9156;SDS011;4613;48.392;9.998;2023-08-17T15:01:35;1.60;;;1.50;;
9156;SDS011;4613;48.392;9.998;2023-08-17T15:04:24;1.93;;;1.73;;
9156;SDS011;4613;48.392;9.998;2023-08-17T15:07:13;2.37;;;2.17;;
9156;SDS011;4613;48.392;9.998;2023-08-17T15:10:03;2.37;;;1.80;;
9156;SDS011;4613;48.392;9.998;2023-08-17T15:12:52;3.43;;;1.90;;
9156;SDS011;4613;48.392;9.998;2023-08-17T15:15:41;1.90;;;1.80;;
9156;SDS011;4613;48.392;9.998;2023-08-17T15:18:32;1.50;;;1.40;;
9156;SDS011;4613;48.392;9.998;2023-08-17T15:21:22;2.73;;;1.90;;
9156;SDS011;4613;48.392;9.998;2023-08-17T15:24:12;2.20;;;2.00;;
9156;SDS011;4613;48.392;9.998;2023-08-17T15:27:01;2.00;;;1.80;;
9156;SDS011;4613;48.392;9.998;2023-08-17T15:29:51;2.10;;;1.90;;
9156;SDS011;4613;48.392;9.998;2023-08-17T15:32:41;4.23;;;1.83;;
9156;SDS011;4613;48.392;9.998;2023-08-17T15:35:30;2.80;;;1.80;;
9156;SDS011;4613;48.392;9.998;2023-08-17T15:38:19;2.00;;;1.83;;
9156;SDS011;4613;48.392;9.998;2023-08-17T15:41:08;2.13;;;1.60;;
9156;SDS011;4613;48.392;9.998;2023-08-17T15:43:57;4.17;;;2.17;;
9156;SDS011;4613;48.392;9.998;2023-08-17T15:46:46;3.83;;;2.40;;
9156;SDS011;4613;48.392;9.998;2023-08-17T15:49:35;3.23;;;2.13;;
9156;SDS011;4613;48.392;9.998;2023-08-17T15:52:25;1.70;;;1.60;;
9156;SDS011;4613;48.392;9.998;2023-08-17T15:55:14;2.97;;;1.80;;
9156;SDS011;4613;48.392;9.998;2023-08-17T15:58:03;1.90;;;1.70;;
9156;SDS011;4613;48.392;9.998;2023-08-17T16:00:55;2.77;;;1.93;;
9156;SDS011;4613;48.392;9.998;2023-08-17T16:03:45;3.17;;;1.97;;
9156;SDS011;4613;48.392;9.998;2023-08-17T16:06:34;3.20;;;1.77;;
9156;SDS011;4613;48.392;9.998;2023-08-17T16:09:24;3.40;;;1.93;;
9156;SDS011;4613;48.392;9.998;2023-08-17T16:12:13;2.10;;;1.90;;
9156;SDS011;4613;48.392;9.998;2023-08-17T16:15:03;1.93;;;1.83;;
9156;SDS011;4613;48.392;9.998;2023-08-17T16:17:52;14.03;;;2.30;;
9156;SDS011;4613;48.392;9.998;2023-08-17T16:20:41;2.77;;;2.10;;
9156;SDS011;4613;48.392;9.998;2023-08-17T16:23:30;2.07;;;1.87;;
9156;SDS011;4613;48.392;9.998;2023-08-17T16:26:19;2.70;;;1.80;;
9156;SDS011;4613;48.392;9.998;2023-08-17T16:29:09;3.53;;;2.00;;
9156;SDS011;4613;48.392;9.998;2023-08-17T16:32:01;1.70;;;1.53;;
9156;SDS011;4613;48.392;9.998;2023-08-17T16:34:51;2.10;;;1.80;;
9156;SDS011;4613;48.392;9.998;2023-08-17T16:37:40;2.33;;;1.67;;
9156;SDS011;4613;48.392;9.998;2023-08-17T16:40:30;1.80;;;1.70;;
9156;SDS011;4613;48.392;9.998;2023-08-17T16:43:19;2.47;;;2.03;;
9156;SDS011;4613;48.392;9.998;2023-08-17T16:46:10;2.33;;;1.90;;
9156;SDS011;4613;48.392;9.998;2023-08-17T16:48:59;2.40;;;1.80;;
9156;SDS011;4613;48.392;9.998;2023-08-17T16:51:48;2.20;;;2.00;;
9156;SDS011;4613;48.392;9.998;2023-08-17T16:54:37;2.07;;;1.90;;
9156;SDS011;4613;48.392;9.998;2023-08-17T16:57:26;2.83;;;2.00;;
9156;SDS011;4613;48.392;9.998;2023-08-17T17:00:15;2.60;;;2.13;;
9156;SDS011;4613;48.392;9.998;2023-08-17T17:03:05;2.47;;;2.00;;
9156;SDS011;4613;48.392;9.998;2023-08-17T17:05:54;1.80;;;1.70;;
9156;SDS011;4613;48.392;9.998;2023-08-17T17:08:43;1.67;;;1.57;;
9156;SDS011;4613;48.392;9.998;2023-08-17T17:11:32;1.90;;;1.77;;
9156;SDS011;4613;48.392;9.998;2023-08-17T17:14:22;1.93;;;1.77;;
9156;SDS011;4613;48.392;9.998;2023-08-17T17:17:11;2.43;;;1.70;;
9156;SDS011;4613;48.392;9.998;2023-08-17T17:20:01;1.70;;;1.60;;
9156;SDS011;4613;48.392;9.998;2023-08-17T17:22:52;1.90;;;1.80;;
9156;SDS011;4613;48.392;9.998;2023-08-17T17:25:42;1.67;;;1.50;;
9156;SDS011;4613;48.392;9.998;2023-08-17T17:28:32;1.70;;;1.60;;
9156;SDS011;4613;48.392;9.998;2023-08-17T17:31:23;1.77;;;1.67;;
9156;SDS011;4613;48.392;9.998;2023-08-17T17:34:13;1.80;;;1.70;;
9156;SDS011;4613;48.392;9.998;2023-08-17T17:37:03;2.00;;;1.70;;
9156;SDS011;4613;48.392;9.998;2023-08-17T17:39:52;2.57;;;1.73;;
9156;SDS011;4613;48.392;9.998;2023-08-17T17:42:42;1.60;;;1.50;;
9156;SDS011;4613;48.392;9.998;2023-08-17T17:45:33;3.83;;;1.80;;
9156;SDS011;4613;48.392;9.998;2023-08-17T17:48:22;1.83;;;1.73;;